sensor_id;sensor_type;location;lat;lon;timestamp;pressure;altitude;pressure_sealevel;temperature;humidity
60918;BME280;46792;38.854;-9.384;2024-03-23T00:53:58;99101.06;;;20.84;70.54
60918;BME280;46792;38.854;-9.384;2024-03-23T00:55:59;99090.88;;;20.84;70.32
60918;BME280;46792;38.854;-9.384;2024-03-23T00:58:00;99090.88;;;20.84;70.35
60918;BME280;46792;38.854;-9.384;2024-03-23T01:00:00;99093.63;;;20.84;70.48
60918;BME280;46792;38.854;-9.384;2024-03-23T01:02:01;99087.69;;;20.82;70.72
60918;BME280;46792;38.854;-9.384;2024-03-23T01:04:02;99090.66;;;20.77;70.89
60918;BME280;46792;38.854;-9.384;2024-03-23T01:06:03;99078.09;;;20.76;71.01
60918;BME280;46792;38.854;-9.384;2024-03-23T01:08:04;99085.84;;;20.74;71.09
60918;BME280;46792;38.854;-9.384;2024-03-23T01:10:05;99078.38;;;20.74;71.07
60918;BME280;46792;38.854;-9.384;2024-03-23T01:12:06;99076.00;;;20.73;71.18
60918;BME280;46792;38.854;-9.384;2024-03-23T01:14:07;99073.94;;;20.70;70.83
60918;BME280;46792;38.854;-9.384;2024-03-23T01:16:07;99078.38;;;20.74;70.87
60918;BME280;46792;38.854;-9.384;2024-03-23T01:18:08;99075.34;;;20.76;70.72
60918;BME280;46792;38.854;-9.384;2024-03-23T01:20:09;99075.09;;;20.81;70.46
60918;BME280;46792;38.854;-9.384;2024-03-23T01:22:10;99080.72;;;20.85;70.43
60918;BME280;46792;38.854;-9.384;2024-03-23T01:24:10;99073.72;;;20.87;70.46
60918;BME280;46792;38.854;-9.384;2024-03-23T01:26:11;99070.63;;;20.89;70.44
60918;BME280;46792;38.854;-9.384;2024-03-23T01:28:12;99075.78;;;20.90;70.31
60918;BME280;46792;38.854;-9.384;2024-03-23T01:30:13;99073.06;;;20.90;69.95
60918;BME280;46792;38.854;-9.384;2024-03-23T01:32:14;99079.41;;;20.94;69.63
60918;BME280;46792;38.854;-9.384;2024-03-23T01:34:15;99077.94;;;20.97;69.58
60918;BME280;46792;38.854;-9.384;2024-03-23T01:36:15;99067.44;;;20.99;69.33
60918;BME280;46792;38.854;-9.384;2024-03-23T01:38:16;99071.88;;;21.04;69.04
60918;BME280;46792;38.854;-9.384;2024-03-23T01:40:17;99075.75;;;21.03;68.78
60918;BME280;46792;38.854;-9.384;2024-03-23T01:42:17;99070.28;;;21.03;68.60
60918;BME280;46792;38.854;-9.384;2024-03-23T01:44:18;99062.59;;;21.08;67.44
60918;BME280;46792;38.854;-9.384;2024-03-23T01:46:19;99068.19;;;21.12;67.13
60918;BME280;46792;38.854;-9.384;2024-03-23T01:48:20;99066.25;;;21.12;67.41
60918;BME280;46792;38.854;-9.384;2024-03-23T01:50:21;99065.91;;;21.14;66.74
60918;BME280;46792;38.854;-9.384;2024-03-23T01:52:22;99073.44;;;21.17;66.50
60918;BME280;46792;38.854;-9.384;2024-03-23T01:54:23;99066.13;;;21.21;66.42
60918;BME280;46792;38.854;-9.384;2024-03-23T01:56:24;99058.69;;;21.22;66.02
60918;BME280;46792;38.854;-9.384;2024-03-23T01:58:25;99057.19;;;21.24;66.34
60918;BME280;46792;38.854;-9.384;2024-03-23T02:03:48;99054.88;;;21.26;65.95
60918;BME280;46792;38.854;-9.384;2024-03-23T02:05:49;99054.56;;;21.28;65.78
60918;BME280;46792;38.854;-9.384;2024-03-23T02:07:50;99049.75;;;21.25;65.68
60918;BME280;46792;38.854;-9.384;2024-03-23T02:09:52;99059.94;;;21.24;64.91
60918;BME280;46792;38.854;-9.384;2024-03-23T02:11:53;99053.03;;;21.31;65.24
60918;BME280;46792;38.854;-9.384;2024-03-23T02:13:54;99039.22;;;21.27;65.35
60918;BME280;46792;38.854;-9.384;2024-03-23T02:15:55;99045.16;;;21.29;65.45
60918;BME280;46792;38.854;-9.384;2024-03-23T02:17:56;99045.41;;;21.24;65.78
60918;BME280;46792;38.854;-9.384;2024-03-23T02:19:56;99052.41;;;21.21;65.79
60918;BME280;46792;38.854;-9.384;2024-03-23T02:21:57;99047.25;;;21.20;65.41
60918;BME280;46792;38.854;-9.384;2024-03-23T02:23:59;99036.25;;;21.20;65.37
60918;BME280;46792;38.854;-9.384;2024-03-23T02:26:00;99033.19;;;21.21;64.70
60918;BME280;46792;38.854;-9.384;2024-03-23T02:28:00;99014.75;;;21.22;65.24
60918;BME280;46792;38.854;-9.384;2024-03-23T02:30:01;98987.66;;;21.20;64.82
60918;BME280;46792;38.854;-9.384;2024-03-23T02:32:02;98994.50;;;21.26;64.87
60918;BME280;46792;38.854;-9.384;2024-03-23T02:34:02;98992.19;;;21.28;64.78
60918;BME280;46792;38.854;-9.384;2024-03-23T02:36:04;98996.81;;;21.24;65.16
60918;BME280;46792;38.854;-9.384;2024-03-23T02:38:04;98992.69;;;21.18;65.42
60918;BME280;46792;38.854;-9.384;2024-03-23T02:40:05;99004.84;;;21.17;65.74
60918;BME280;46792;38.854;-9.384;2024-03-23T02:42:06;99014.13;;;21.12;65.88
60918;BME280;46792;38.854;-9.384;2024-03-23T02:44:07;99017.44;;;21.06;66.15
60918;BME280;46792;38.854;-9.384;2024-03-23T02:46:08;99018.16;;;21.03;66.34
60918;BME280;46792;38.854;-9.384;2024-03-23T02:48:08;99031.31;;;20.97;66.81
60918;BME280;46792;38.854;-9.384;2024-03-23T02:50:09;99031.09;;;20.90;67.34
60918;BME280;46792;38.854;-9.384;2024-03-23T02:52:10;99029.84;;;20.87;67.52
60918;BME280;46792;38.854;-9.384;2024-03-23T02:54:11;99023.44;;;20.83;67.87
60918;BME280;46792;38.854;-9.384;2024-03-23T02:56:11;99030.06;;;20.82;67.89
60918;BME280;46792;38.854;-9.384;2024-03-23T02:58:16;99031.91;;;20.78;67.94
60918;BME280;46792;38.854;-9.384;2024-03-23T03:00:16;99024.84;;;20.77;67.93
60918;BME280;46792;38.854;-9.384;2024-03-23T03:02:17;99022.53;;;20.79;67.17
60918;BME280;46792;38.854;-9.384;2024-03-23T03:04:18;99030.97;;;20.86;66.58
60918;BME280;46792;38.854;-9.384;2024-03-23T03:06:25;99016.56;;;20.89;66.62
60918;BME280;46792;38.854;-9.384;2024-03-23T03:08:29;99019.78;;;20.91;66.49
60918;BME280;46792;38.854;-9.384;2024-03-23T03:10:29;99020.34;;;20.97;66.45
60918;BME280;46792;38.854;-9.384;2024-03-23T03:12:31;99014.84;;;20.97;65.96
60918;BME280;46792;38.854;-9.384;2024-03-23T03:14:32;99010.59;;;21.00;66.01
60918;BME280;46792;38.854;-9.384;2024-03-23T03:16:32;99005.66;;;21.05;65.61
60918;BME280;46792;38.854;-9.384;2024-03-23T03:18:33;99006.13;;;21.07;65.48
60918;BME280;46792;38.854;-9.384;2024-03-23T03:20:34;99010.81;;;21.07;65.25
60918;BME280;46792;38.854;-9.384;2024-03-23T03:22:35;99010.91;;;21.10;65.25
60918;BME280;46792;38.854;-9.384;2024-03-23T03:24:35;99006.13;;;21.07;65.63
60918;BME280;46792;38.854;-9.384;2024-03-23T03:26:36;99008.31;;;21.02;65.55
60918;BME280;46792;38.854;-9.384;2024-03-23T03:28:37;99003.97;;;21.01;65.55
60918;BME280;46792;38.854;-9.384;2024-03-23T03:30:38;99008.06;;;21.07;64.83
60918;BME280;46792;38.854;-9.384;2024-03-23T03:32:38;99007.63;;;21.05;65.11
60918;BME280;46792;38.854;-9.384;2024-03-23T03:34:39;99008.75;;;21.04;65.42
60918;BME280;46792;38.854;-9.384;2024-03-23T03:36:39;99002.91;;;21.05;65.40
60918;BME280;46792;38.854;-9.384;2024-03-23T03:38:40;98998.25;;;21.06;65.27
60918;BME280;46792;38.854;-9.384;2024-03-23T03:40:44;99002.13;;;21.05;65.43
60918;BME280;46792;38.854;-9.384;2024-03-23T03:42:44;99002.13;;;21.05;65.46
60918;BME280;46792;38.854;-9.384;2024-03-23T03:44:45;98995.03;;;21.04;65.56
60918;BME280;46792;38.854;-9.384;2024-03-23T03:46:46;98986.34;;;21.02;65.52
60918;BME280;46792;38.854;-9.384;2024-03-23T03:48:46;98988.75;;;21.03;65.51
60918;BME280;46792;38.854;-9.384;2024-03-23T03:50:49;98987.59;;;21.04;65.27
60918;BME280;46792;38.854;-9.384;2024-03-23T03:52:49;98986.44;;;21.05;64.35
60918;BME280;46792;38.854;-9.384;2024-03-23T03:54:50;98981.72;;;21.18;64.01
60918;BME280;46792;38.854;-9.384;2024-03-23T03:56:51;98978.28;;;21.21;64.03
60918;BME280;46792;38.854;-9.384;2024-03-23T03:58:52;98969.59;;;21.19;64.23
60918;BME280;46792;38.854;-9.384;2024-03-23T04:00:52;98977.38;;;21.17;64.50
60918;BME280;46792;38.854;-9.384;2024-03-23T04:02:53;98976.59;;;21.17;64.42
60918;BME280;46792;38.854;-9.384;2024-03-23T04:04:54;98977.75;;;21.16;64.21
60918;BME280;46792;38.854;-9.384;2024-03-23T04:07:01;98975.09;;;21.19;63.94
60918;BME280;46792;38.854;-9.384;2024-03-23T04:09:02;98979.44;;;21.20;63.71
60918;BME280;46792;38.854;-9.384;2024-03-23T04:11:03;98972.81;;;21.21;63.95
60918;BME280;46792;38.854;-9.384;2024-03-23T04:13:03;98979.88;;;21.22;63.87
60918;BME280;46792;38.854;-9.384;2024-03-23T04:15:05;98974.84;;;21.24;63.90
60918;BME280;46792;38.854;-9.384;2024-03-23T04:17:06;98971.66;;;21.22;63.88
60918;BME280;46792;38.854;-9.384;2024-03-23T04:19:07;98986.25;;;21.26;63.62
60918;BME280;46792;38.854;-9.384;2024-03-23T04:21:08;98989.72;;;21.23;64.06
60918;BME280;46792;38.854;-9.384;2024-03-23T04:23:09;99000.25;;;21.21;64.33
60918;BME280;46792;38.854;-9.384;2024-03-23T04:25:10;99010.09;;;21.22;64.47
60918;BME280;46792;38.854;-9.384;2024-03-23T04:27:11;99002.53;;;21.19;64.93
60918;BME280;46792;38.854;-9.384;2024-03-23T04:29:11;98993.50;;;21.19;64.77
60918;BME280;46792;38.854;-9.384;2024-03-23T04:31:12;98977.38;;;21.17;64.13
60918;BME280;46792;38.854;-9.384;2024-03-23T04:33:13;98984.09;;;21.20;64.18
60918;BME280;46792;38.854;-9.384;2024-03-23T04:35:14;98989.97;;;21.18;63.76
60918;BME280;46792;38.854;-9.384;2024-03-23T04:37:14;98988.13;;;21.22;63.31
60918;BME280;46792;38.854;-9.384;2024-03-23T04:39:16;98970.69;;;21.31;63.21
60918;BME280;46792;38.854;-9.384;2024-03-23T04:41:17;98971.94;;;21.33;62.84
60918;BME280;46792;38.854;-9.384;2024-03-23T04:43:18;98980.28;;;21.37;62.87
60918;BME280;46792;38.854;-9.384;2024-03-23T04:45:19;98979.13;;;21.38;62.93
60918;BME280;46792;38.854;-9.384;2024-03-23T04:47:20;98970.09;;;21.37;63.08
60918;BME280;46792;38.854;-9.384;2024-03-23T04:49:20;98982.34;;;21.40;63.17
60918;BME280;46792;38.854;-9.384;2024-03-23T04:51:23;98980.72;;;21.39;63.57
60918;BME280;46792;38.854;-9.384;2024-03-23T04:53:24;98972.38;;;21.35;63.79
60918;BME280;46792;38.854;-9.384;2024-03-23T04:55:29;98972.66;;;21.30;64.15
60918;BME280;46792;38.854;-9.384;2024-03-23T04:57:31;98978.47;;;21.28;64.09
60918;BME280;46792;38.854;-9.384;2024-03-23T04:59:32;98976.53;;;21.29;63.89
60918;BME280;46792;38.854;-9.384;2024-03-23T05:01:33;98977.31;;;21.30;63.86
60918;BME280;46792;38.854;-9.384;2024-03-23T05:03:37;98980.75;;;21.26;64.04
60918;BME280;46792;38.854;-9.384;2024-03-23T05:05:38;98973.69;;;21.25;63.78
60918;BME280;46792;38.854;-9.384;2024-03-23T05:07:39;98981.56;;;21.27;63.80
60918;BME280;46792;38.854;-9.384;2024-03-23T05:09:41;98980.06;;;21.30;63.58
60918;BME280;46792;38.854;-9.384;2024-03-23T05:11:42;98986.09;;;21.35;63.69
60918;BME280;46792;38.854;-9.384;2024-03-23T05:13:43;98988.59;;;21.40;63.41
60918;BME280;46792;38.854;-9.384;2024-03-23T05:15:44;98983.03;;;21.37;63.55
60918;BME280;46792;38.854;-9.384;2024-03-23T05:17:44;98984.25;;;21.39;63.31
60918;BME280;46792;38.854;-9.384;2024-03-23T05:19:45;98990.13;;;21.38;63.67
60918;BME280;46792;38.854;-9.384;2024-03-23T05:21:46;98988.16;;;21.38;63.79
60918;BME280;46792;38.854;-9.384;2024-03-23T05:23:46;98989.75;;;21.39;63.67
60918;BME280;46792;38.854;-9.384;2024-03-23T05:25:47;98989.16;;;21.46;63.16
60918;BME280;46792;38.854;-9.384;2024-03-23T05:27:48;98988.16;;;21.38;63.41
60918;BME280;46792;38.854;-9.384;2024-03-23T05:29:50;98981.06;;;21.37;63.47
60918;BME280;46792;38.854;-9.384;2024-03-23T05:31:51;99002.34;;;21.40;63.44
60918;BME280;46792;38.854;-9.384;2024-03-23T05:33:52;98993.66;;;21.38;63.43
60918;BME280;46792;38.854;-9.384;2024-03-23T05:36:00;98992.16;;;21.41;63.47
60918;BME280;46792;38.854;-9.384;2024-03-23T05:38:01;98984.16;;;21.36;63.61
60918;BME280;46792;38.854;-9.384;2024-03-23T05:40:02;98977.88;;;21.35;63.59
60918;BME280;46792;38.854;-9.384;2024-03-23T05:42:04;98981.34;;;21.32;63.40
60918;BME280;46792;38.854;-9.384;2024-03-23T05:44:04;98972.75;;;21.34;63.34
60918;BME280;46792;38.854;-9.384;2024-03-23T05:46:06;98963.34;;;21.35;63.08
60918;BME280;46792;38.854;-9.384;2024-03-23T05:48:08;98974.78;;;21.37;63.13
60918;BME280;46792;38.854;-9.384;2024-03-23T05:50:08;98981.88;;;21.38;62.87
60918;BME280;46792;38.854;-9.384;2024-03-23T05:52:11;98975.13;;;21.35;62.78
60918;BME280;46792;38.854;-9.384;2024-03-23T05:54:12;98989.66;;;21.36;62.81
60918;BME280;46792;38.854;-9.384;2024-03-23T05:56:13;98984.16;;;21.36;62.64
60918;BME280;46792;38.854;-9.384;2024-03-23T05:58:15;98979.00;;;21.34;62.54
60918;BME280;46792;38.854;-9.384;2024-03-23T06:00:16;98983.34;;;21.35;62.00
60918;BME280;46792;38.854;-9.384;2024-03-23T06:02:16;98981.44;;;21.36;62.08
60918;BME280;46792;38.854;-9.384;2024-03-23T06:04:17;98979.59;;;21.40;62.17
60918;BME280;46792;38.854;-9.384;2024-03-23T06:06:18;98972.50;;;21.39;62.16
60918;BME280;46792;38.854;-9.384;2024-03-23T06:08:19;98981.88;;;21.38;62.32
60918;BME280;46792;38.854;-9.384;2024-03-23T06:10:20;98973.28;;;21.39;61.97
60918;BME280;46792;38.854;-9.384;2024-03-23T06:12:20;98970.78;;;21.34;62.17
60918;BME280;46792;38.854;-9.384;2024-03-23T06:14:22;98970.78;;;21.34;62.86
60918;BME280;46792;38.854;-9.384;2024-03-23T06:16:22;98957.16;;;21.38;60.87
60918;BME280;46792;38.854;-9.384;2024-03-23T06:18:31;98944.06;;;21.47;56.48
60918;BME280;46792;38.854;-9.384;2024-03-23T06:20:32;98973.28;;;21.68;55.67
60918;BME280;46792;38.854;-9.384;2024-03-23T06:22:32;98955.38;;;21.74;57.01
60918;BME280;46792;38.854;-9.384;2024-03-23T06:24:34;98947.47;;;21.72;57.87
60918;BME280;46792;38.854;-9.384;2024-03-23T06:26:34;98957.25;;;21.70;58.65
60918;BME280;46792;38.854;-9.384;2024-03-23T06:28:35;98957.50;;;21.65;59.26
60918;BME280;46792;38.854;-9.384;2024-03-23T06:30:36;98960.81;;;21.58;59.88
60918;BME280;46792;38.854;-9.384;2024-03-23T06:32:37;98963.81;;;21.53;59.92
60918;BME280;46792;38.854;-9.384;2024-03-23T06:34:37;98971.19;;;21.49;59.87
60918;BME280;46792;38.854;-9.384;2024-03-23T06:36:38;98973.81;;;21.45;58.81
60918;BME280;46792;38.854;-9.384;2024-03-23T06:38:38;98995.09;;;21.48;58.59
60918;BME280;46792;38.854;-9.384;2024-03-23T06:40:39;99000.13;;;21.46;58.12
60918;BME280;46792;38.854;-9.384;2024-03-23T06:42:40;99030.19;;;21.55;57.57
60918;BME280;46792;38.854;-9.384;2024-03-23T06:44:40;98975.81;;;21.61;47.96
60918;BME280;46792;38.854;-9.384;2024-03-23T06:46:41;99002.47;;;22.21;41.69
60918;BME280;46792;38.854;-9.384;2024-03-23T06:48:42;98987.44;;;22.50;45.57
60918;BME280;46792;38.854;-9.384;2024-03-23T06:50:42;98986.25;;;22.67;45.84
60918;BME280;46792;38.854;-9.384;2024-03-23T06:52:43;98980.91;;;22.74;45.38
60918;BME280;46792;38.854;-9.384;2024-03-23T06:54:43;98980.25;;;22.81;44.31
60918;BME280;46792;38.854;-9.384;2024-03-23T06:56:47;98981.38;;;22.96;43.78
60918;BME280;46792;38.854;-9.384;2024-03-23T06:58:48;98988.16;;;23.02;43.83
60918;BME280;46792;38.854;-9.384;2024-03-23T07:00:48;98987.53;;;23.09;43.19
60918;BME280;46792;38.854;-9.384;2024-03-23T07:02:49;98974.19;;;23.11;43.18
60918;BME280;46792;38.854;-9.384;2024-03-23T07:04:50;98986.38;;;23.10;43.57
60918;BME280;46792;38.854;-9.384;2024-03-23T07:06:50;98995.34;;;23.07;44.00
60918;BME280;46792;38.854;-9.384;2024-03-23T07:08:52;99007.44;;;23.02;44.49
60918;BME280;46792;38.854;-9.384;2024-03-23T07:10:53;99023.38;;;22.93;45.04
60918;BME280;46792;38.854;-9.384;2024-03-23T07:12:54;99023.13;;;22.82;45.58
60918;BME280;46792;38.854;-9.384;2024-03-23T07:14:54;99016.66;;;22.74;45.99
60918;BME280;46792;38.854;-9.384;2024-03-23T07:16:55;99030.28;;;22.67;46.48
60918;BME280;46792;38.854;-9.384;2024-03-23T07:18:56;99021.06;;;22.59;47.08
60918;BME280;46792;38.854;-9.384;2024-03-23T07:20:57;99012.19;;;22.50;47.94
60918;BME280;46792;38.854;-9.384;2024-03-23T07:22:58;99016.84;;;22.46;48.13
60918;BME280;46792;38.854;-9.384;2024-03-23T07:25:00;99003.66;;;22.39;48.39
60918;BME280;46792;38.854;-9.384;2024-03-23T07:27:01;99007.94;;;22.37;48.46
60918;BME280;46792;38.854;-9.384;2024-03-23T07:29:05;99033.84;;;22.36;48.64
60918;BME280;46792;38.854;-9.384;2024-03-23T07:31:10;99031.44;;;22.34;49.45
60918;BME280;46792;38.854;-9.384;2024-03-23T07:33:11;99027.72;;;22.26;50.07
60918;BME280;46792;38.854;-9.384;2024-03-23T07:35:11;99052.09;;;22.28;50.45
60918;BME280;46792;38.854;-9.384;2024-03-23T07:37:12;99061.06;;;22.25;50.72
60918;BME280;46792;38.854;-9.384;2024-03-23T07:39:13;99050.06;;;22.25;50.72
60918;BME280;46792;38.854;-9.384;2024-03-23T07:41:16;99040.94;;;22.21;51.43
60918;BME280;46792;38.854;-9.384;2024-03-23T07:43:20;99032.25;;;22.18;51.75
60918;BME280;46792;38.854;-9.384;2024-03-23T07:45:21;99035.72;;;22.15;52.19
60918;BME280;46792;38.854;-9.384;2024-03-23T07:47:21;99033.31;;;22.14;52.39
60918;BME280;46792;38.854;-9.384;2024-03-23T07:49:22;99031.34;;;22.14;52.19
60918;BME280;46792;38.854;-9.384;2024-03-23T07:51:23;99031.81;;;22.16;52.44
60918;BME280;46792;38.854;-9.384;2024-03-23T07:53:23;99034.19;;;22.18;52.53
60918;BME280;46792;38.854;-9.384;2024-03-23T07:55:24;99038.91;;;22.17;52.51
60918;BME280;46792;38.854;-9.384;2024-03-23T07:57:25;99045.63;;;22.20;52.64
60918;BME280;46792;38.854;-9.384;2024-03-23T07:59:28;99035.34;;;22.17;52.96
60918;BME280;46792;38.854;-9.384;2024-03-23T08:01:32;99036.25;;;22.21;53.11
60918;BME280;46792;38.854;-9.384;2024-03-23T08:03:32;99028.25;;;22.16;53.25
60918;BME280;46792;38.854;-9.384;2024-03-23T08:05:33;99029.75;;;22.13;53.11
60918;BME280;46792;38.854;-9.384;2024-03-23T08:07:35;99034.56;;;22.16;53.06
60918;BME280;46792;38.854;-9.384;2024-03-23T08:09:35;99033.66;;;22.12;53.11
60918;BME280;46792;38.854;-9.384;2024-03-23T08:11:36;99031.28;;;22.11;53.24
60918;BME280;46792;38.854;-9.384;2024-03-23T08:13:39;99032.06;;;22.11;53.50
60918;BME280;46792;38.854;-9.384;2024-03-23T08:15:40;99035.50;;;22.08;53.44
60918;BME280;46792;38.854;-9.384;2024-03-23T08:17:40;99039.53;;;22.11;53.13
60918;BME280;46792;38.854;-9.384;2024-03-23T08:19:41;99029.84;;;22.17;53.19
60918;BME280;46792;38.854;-9.384;2024-03-23T08:21:42;99030.28;;;22.19;53.06
60918;BME280;46792;38.854;-9.384;2024-03-23T08:23:42;99026.66;;;22.31;52.58
60918;BME280;46792;38.854;-9.384;2024-03-23T08:25:43;99029.47;;;22.34;53.03
60918;BME280;46792;38.854;-9.384;2024-03-23T08:27:44;99022.50;;;22.37;53.26
60918;BME280;46792;38.854;-9.384;2024-03-23T08:29:45;99019.75;;;22.37;53.39
60918;BME280;46792;38.854;-9.384;2024-03-23T08:31:46;99020.59;;;22.41;52.93
60918;BME280;46792;38.854;-9.384;2024-03-23T08:33:46;99025.44;;;22.44;53.13
60918;BME280;46792;38.854;-9.384;2024-03-23T08:35:58;99027.47;;;22.47;53.69
60918;BME280;46792;38.854;-9.384;2024-03-23T08:37:59;99030.22;;;22.47;53.79
60918;BME280;46792;38.854;-9.384;2024-03-23T08:40:00;99033.34;;;22.46;53.82
60918;BME280;46792;38.854;-9.384;2024-03-23T08:42:01;99037.56;;;22.43;54.08
60918;BME280;46792;38.854;-9.384;2024-03-23T08:44:01;99045.72;;;22.40;53.73
60918;BME280;46792;38.854;-9.384;2024-03-23T08:48:09;99038.88;;;22.33;53.87
60918;BME280;46792;38.854;-9.384;2024-03-23T08:50:09;99039.69;;;22.34;54.02
60918;BME280;46792;38.854;-9.384;2024-03-23T08:52:10;99035.44;;;22.37;54.25
60918;BME280;46792;38.854;-9.384;2024-03-23T08:54:11;99036.06;;;22.30;54.90
60918;BME280;46792;38.854;-9.384;2024-03-23T08:56:12;99038.38;;;22.28;54.50
60918;BME280;46792;38.854;-9.384;2024-03-23T08:58:12;99027.38;;;22.28;53.85
60918;BME280;46792;38.854;-9.384;2024-03-23T09:00:15;99025.69;;;22.23;53.73
60918;BME280;46792;38.854;-9.384;2024-03-23T09:02:15;99032.88;;;22.28;53.96
60918;BME280;46792;38.854;-9.384;2024-03-23T09:04:16;99055.31;;;22.30;54.95
60918;BME280;46792;38.854;-9.384;2024-03-23T09:06:17;99060.34;;;22.28;55.07
60918;BME280;46792;38.854;-9.384;2024-03-23T09:08:18;99054.06;;;22.27;55.72
60918;BME280;46792;38.854;-9.384;2024-03-23T09:10:19;99053.97;;;22.24;56.67
60918;BME280;46792;38.854;-9.384;2024-03-23T09:12:19;99064.53;;;22.22;57.52
60918;BME280;46792;38.854;-9.384;2024-03-23T09:14:22;99064.88;;;22.20;57.24
60918;BME280;46792;38.854;-9.384;2024-03-23T09:16:22;99064.09;;;22.20;57.43
60918;BME280;46792;38.854;-9.384;2024-03-23T09:18:23;99058.84;;;22.14;57.53
60918;BME280;46792;38.854;-9.384;2024-03-23T09:20:24;99061.59;;;22.14;57.47
60918;BME280;46792;38.854;-9.384;2024-03-23T09:22:25;99062.31;;;22.11;57.60
60918;BME280;46792;38.854;-9.384;2024-03-23T09:24:28;99043.31;;;22.06;56.95
60918;BME280;46792;38.854;-9.384;2024-03-23T09:26:29;99048.81;;;22.06;56.80
60918;BME280;46792;38.854;-9.384;2024-03-23T09:28:30;99059.03;;;22.06;57.10
60918;BME280;46792;38.854;-9.384;2024-03-23T09:30:32;99052.13;;;22.12;57.20
60918;BME280;46792;38.854;-9.384;2024-03-23T09:32:33;99050.41;;;22.07;57.66
60918;BME280;46792;38.854;-9.384;2024-03-23T09:34:34;99051.22;;;22.08;57.38
60918;BME280;46792;38.854;-9.384;2024-03-23T09:36:35;99069.31;;;22.09;57.22
60918;BME280;46792;38.854;-9.384;2024-03-23T09:38:35;99063.00;;;22.08;56.53
60918;BME280;46792;38.854;-9.384;2024-03-23T09:40:40;99057.94;;;22.10;56.10
60918;BME280;46792;38.854;-9.384;2024-03-23T09:42:42;99061.59;;;22.14;56.37
60918;BME280;46792;38.854;-9.384;2024-03-23T09:44:48;99069.59;;;22.20;55.98
60918;BME280;46792;38.854;-9.384;2024-03-23T09:46:51;99071.19;;;22.21;56.17
60918;BME280;46792;38.854;-9.384;2024-03-23T09:48:52;99069.22;;;22.21;56.03
60918;BME280;46792;38.854;-9.384;2024-03-23T09:50:52;99075.09;;;22.20;56.00
60918;BME280;46792;38.854;-9.384;2024-03-23T09:52:53;99084.66;;;22.26;56.33
60918;BME280;46792;38.854;-9.384;2024-03-23T09:54:54;99089.44;;;22.29;56.91
60918;BME280;46792;38.854;-9.384;2024-03-23T09:56:54;99083.31;;;22.36;57.16
60918;BME280;46792;38.854;-9.384;2024-03-23T09:59:02;99076.16;;;22.31;56.32
60918;BME280;46792;38.854;-9.384;2024-03-23T10:01:03;99058.94;;;22.34;55.92
60918;BME280;46792;38.854;-9.384;2024-03-23T10:03:04;99065.31;;;22.38;56.11
60918;BME280;46792;38.854;-9.384;2024-03-23T10:05:20;99070.59;;;22.43;55.98
60918;BME280;46792;38.854;-9.384;2024-03-23T10:07:22;99072.25;;;22.48;55.15
60918;BME280;46792;38.854;-9.384;2024-03-23T10:09:22;99051.97;;;22.53;54.40
60918;BME280;46792;38.854;-9.384;2024-03-23T10:11:23;99065.16;;;22.63;54.12
60918;BME280;46792;38.854;-9.384;2024-03-23T10:13:28;99057.50;;;22.72;53.64
60918;BME280;46792;38.854;-9.384;2024-03-23T10:15:36;99049.06;;;22.81;53.22
60918;BME280;46792;38.854;-9.384;2024-03-23T10:17:37;99060.31;;;22.92;52.91
60918;BME280;46792;38.854;-9.384;2024-03-23T10:19:38;99073.50;;;23.02;53.45
60918;BME280;46792;38.854;-9.384;2024-03-23T10:21:39;99078.00;;;23.11;52.90
60918;BME280;46792;38.854;-9.384;2024-03-23T10:23:41;99082.44;;;23.15;52.78
60918;BME280;46792;38.854;-9.384;2024-03-23T10:25:42;99082.09;;;23.17;52.39
60918;BME280;46792;38.854;-9.384;2024-03-23T10:27:43;99074.19;;;23.15;52.25
60918;BME280;46792;38.854;-9.384;2024-03-23T10:29:47;99073.56;;;23.22;52.24
60918;BME280;46792;38.854;-9.384;2024-03-23T10:31:48;99079.94;;;23.26;52.48
60918;BME280;46792;38.854;-9.384;2024-03-23T10:33:50;99073.78;;;23.33;52.40
60918;BME280;46792;38.854;-9.384;2024-03-23T10:35:50;99070.81;;;23.42;52.29
60918;BME280;46792;38.854;-9.384;2024-03-23T10:37:52;99067.78;;;23.47;51.87
60918;BME280;46792;38.854;-9.384;2024-03-23T10:39:54;99067.56;;;23.56;51.76
60918;BME280;46792;38.854;-9.384;2024-03-23T10:41:56;99069.00;;;23.69;51.61
60918;BME280;46792;38.854;-9.384;2024-03-23T10:43:58;99066.06;;;23.81;51.08
60918;BME280;46792;38.854;-9.384;2024-03-23T10:45:59;99067.59;;;23.98;50.59
60918;BME280;46792;38.854;-9.384;2024-03-23T10:48:01;99069.94;;;24.20;50.61
60918;BME280;46792;38.854;-9.384;2024-03-23T10:50:03;99073.66;;;24.31;50.81
60918;BME280;46792;38.854;-9.384;2024-03-23T10:52:06;99076.22;;;24.43;50.33
60918;BME280;46792;38.854;-9.384;2024-03-23T10:54:06;99071.00;;;24.62;51.16
60918;BME280;46792;38.854;-9.384;2024-03-23T10:56:08;99071.56;;;24.71;49.36
60918;BME280;46792;38.854;-9.384;2024-03-23T10:58:09;99062.22;;;24.79;49.52
60918;BME280;46792;38.854;-9.384;2024-03-23T11:00:13;99072.50;;;24.82;48.78
60918;BME280;46792;38.854;-9.384;2024-03-23T11:02:22;99059.19;;;24.88;49.07
60918;BME280;46792;38.854;-9.384;2024-03-23T11:04:38;99057.31;;;24.96;48.85
60918;BME280;46792;38.854;-9.384;2024-03-23T11:06:39;99065.28;;;25.01;48.58
60918;BME280;46792;38.854;-9.384;2024-03-23T11:08:43;99060.56;;;25.01;48.62
60918;BME280;46792;38.854;-9.384;2024-03-23T11:10:45;99058.59;;;25.02;48.21
60918;BME280;46792;38.854;-9.384;2024-03-23T11:12:45;99049.47;;;24.98;48.31
60918;BME280;46792;38.854;-9.384;2024-03-23T11:14:47;99052.22;;;24.98;47.43
60918;BME280;46792;38.854;-9.384;2024-03-23T11:17:08;99038.41;;;24.98;47.25
60918;BME280;46792;38.854;-9.384;2024-03-23T11:19:34;99050.53;;;24.89;47.11
60918;BME280;46792;38.854;-9.384;2024-03-23T11:21:52;99049.19;;;24.76;46.41
60918;BME280;46792;38.854;-9.384;2024-03-23T11:23:54;99046.56;;;24.64;46.76
60918;BME280;46792;38.854;-9.384;2024-03-23T11:25:54;99049.25;;;24.56;46.42
60918;BME280;46792;38.854;-9.384;2024-03-23T11:28:10;99027.59;;;24.58;47.03
60918;BME280;46792;38.854;-9.384;2024-03-23T11:30:16;99041.44;;;24.62;46.10
60918;BME280;46792;38.854;-9.384;2024-03-23T11:32:18;99027.41;;;24.71;45.79
60918;BME280;46792;38.854;-9.384;2024-03-23T11:34:19;99021.22;;;24.81;46.66